Time;durP1;ratioP1;P1;durP2;ratioP2;P2;SDS_P1;SDS_P2;PMS_P1;PMS_P2;Temp;Humidity;BMP_temperature;BMP_pressure;BME280_temperature;BME280_humidity;BME280_pressure;Samples;Min_cycle;Max_cycle;Signal;HPM_P1;HPM_P2
2022/04/09 00:02:18;;;;;;;19.25;5.20;;;;;;;3.29;82.21;100234.28;5099434;28;20039;-63
2022/04/09 00:04:44;;;;;;;23.50;3.80;;;;;;;3.23;82.97;100252.13;5087097;28;20074;-63
2022/04/09 00:07:09;;;;;;;24.55;4.82;;;;;;;3.14;83.27;100252.50;5091949;28;20032;-63
2022/04/09 00:09:35;;;;;;;13.15;3.70;;;;;;;3.14;83.53;100256.00;5094759;28;20039;-63
2022/04/09 00:12:00;;;;;;;15.77;4.63;;;;;;;3.09;83.52;100256.19;5101701;28;20495;-63
2022/04/09 00:14:25;;;;;;;27.50;4.47;;;;;;;3.06;83.94;100269.50;5095621;28;20551;-63
2022/04/09 00:16:51;;;;;;;22.15;3.80;;;;;;;3.13;82.81;100266.59;5070210;28;20045;-63
2022/04/09 00:19:16;;;;;;;27.15;4.40;;;;;;;3.10;82.93;100272.84;5082188;28;20043;-63
2022/04/09 00:21:42;;;;;;;23.40;5.15;;;;;;;3.11;82.46;100267.53;5102198;28;20048;-63
2022/04/09 00:24:08;;;;;;;19.88;4.97;;;;;;;3.04;82.56;100279.22;5102158;28;20104;-63
2022/04/09 00:26:33;;;;;;;27.80;4.95;;;;;;;2.98;83.12;100276.00;5097598;28;20125;-63
2022/04/09 00:28:59;;;;;;;31.85;5.38;;;;;;;2.97;83.41;100287.47;5089233;28;20073;-63
2022/04/09 00:31:24;;;;;;;29.83;5.65;;;;;;;2.95;83.49;100284.88;5101622;28;20031;-63
2022/04/09 00:33:50;;;;;;;25.65;4.15;;;;;;;2.92;83.67;100285.03;5086166;28;20048;-63
2022/04/09 00:36:15;;;;;;;25.10;4.07;;;;;;;2.96;82.63;100294.50;5081324;28;20086;-63
2022/04/09 00:38:41;;;;;;;27.25;3.95;;;;;;;2.94;83.23;100298.13;5079910;28;20071;-64
2022/04/09 00:41:10;;;;;;;23.27;4.38;;;;;;;2.97;83.50;100296.22;5089345;28;20039;-63
2022/04/09 00:43:42;;;;;;;27.27;4.03;;;;;;;3.03;82.94;100308.28;5088418;28;20077;-63
2022/04/09 00:46:08;;;;;;;21.75;3.85;;;;;;;3.06;82.98;100309.00;5082307;28;20043;-63
2022/04/09 00:48:36;;;;;;;25.30;3.47;;;;;;;3.04;82.73;100312.63;5100147;28;20032;-63
2022/04/09 00:51:02;;;;;;;19.33;4.28;;;;;;;3.04;82.94;100310.84;5100625;28;20043;-63
2022/04/09 00:53:33;;;;;;;18.20;3.50;;;;;;;3.14;82.06;100321.84;5089385;28;20047;-63
2022/04/09 00:56:16;;;;;;;22.05;3.63;;;;;;;3.13;82.18;100327.19;5079854;28;20093;-64
2022/04/09 00:58:55;;;;;;;18.38;3.58;;;;;;;3.17;82.12;100319.09;5086167;28;20062;-63
2022/04/09 01:01:22;;;;;;;16.80;3.75;;;;;;;3.33;81.92;100328.06;5089453;28;20024;-64
2022/04/09 01:03:50;;;;;;;21.25;3.50;;;;;;;3.28;81.37;100337.09;5093785;28;20046;-63
2022/04/09 01:06:15;;;;;;;21.05;4.47;;;;;;;3.30;81.83;100340.50;5098717;28;20459;-64
2022/04/09 01:08:41;;;;;;;17.65;3.72;;;;;;;3.24;82.24;100344.25;5085134;28;20038;-63
2022/04/09 01:11:07;;;;;;;18.40;4.28;;;;;;;3.27;81.50;100344.16;5090616;28;20032;-63
2022/04/09 01:13:35;;;;;;;26.45;4.88;;;;;;;3.18;81.93;100351.56;5080431;28;20127;-63
2022/04/09 01:16:00;;;;;;;24.48;4.20;;;;;;;3.27;81.97;100354.69;5090637;28;20040;-63
2022/04/09 01:18:25;;;;;;;15.40;3.50;;;;;;;3.17;82.41;100361.25;5078068;28;20042;-63
2022/04/09 01:21:00;;;;;;;28.08;4.30;;;;;;;3.10;82.24;100365.03;5095519;28;20218;-63
2022/04/09 01:23:26;;;;;;;24.42;3.80;;;;;;;3.02;82.31;100377.69;5062937;28;20036;-63
2022/04/09 01:25:55;;;;;;;20.48;4.88;;;;;;;2.94;83.44;100375.34;5079009;28;20083;-63
2022/04/09 01:28:20;;;;;;;21.38;4.05;;;;;;;2.87;83.68;100378.28;5099630;28;20430;-63
2022/04/09 01:30:46;;;;;;;23.50;5.10;;;;;;;2.89;83.47;100376.44;5098806;28;20054;-64
2022/04/09 01:33:16;;;;;;;23.92;3.80;;;;;;;2.91;83.06;100369.31;5099722;28;20039;-63
2022/04/09 01:35:42;;;;;;;17.67;3.50;;;;;;;2.81;83.81;100379.34;5085813;28;20127;-63
2022/04/09 01:38:08;;;;;;;17.52;4.05;;;;;;;2.81;82.91;100382.88;5080464;28;20039;-63
2022/04/09 01:40:34;;;;;;;24.65;4.10;;;;;;;2.88;83.38;100380.00;5099287;28;20523;-63
2022/04/09 01:43:00;;;;;;;23.48;3.60;;;;;;;2.85;83.16;100387.06;5091186;28;20036;-63
2022/04/09 01:45:28;;;;;;;36.22;4.88;;;;;;;2.90;83.21;100388.69;5089025;28;20548;-63
2022/04/09 01:47:56;;;;;;;30.17;4.95;;;;;;;2.85;83.45;100394.13;5063139;28;20135;-63
2022/04/09 01:50:21;;;;;;;29.17;4.47;;;;;;;2.79;82.94;100411.00;5096386;28;20038;-63
2022/04/09 01:52:47;;;;;;;23.83;4.28;;;;;;;2.83;82.87;100414.41;5078578;28;20472;-62
2022/04/09 01:55:14;;;;;;;25.42;3.92;;;;;;;2.80;83.43;100415.34;5078448;28;20048;-63
2022/04/09 01:57:42;;;;;;;18.85;4.00;;;;;;;2.78;83.08;100419.84;5078190;28;20130;-63
2022/04/09 02:00:11;;;;;;;21.25;3.65;;;;;;;2.83;82.88;100433.69;5079126;28;20040;-63
2022/04/09 02:02:40;;;;;;;24.10;4.18;;;;;;;2.82;82.50;100436.38;5094519;28;20040;-63
2022/04/09 02:05:06;;;;;;;24.67;3.67;;;;;;;2.80;82.44;100438.19;5088821;28;20064;-63
2022/04/09 02:07:32;;;;;;;19.52;3.33;;;;;;;2.80;82.94;100435.56;5085477;28;20039;-63
2022/04/09 02:09:59;;;;;;;22.75;3.55;;;;;;;2.79;83.30;100434.72;5078130;28;20032;-63
2022/04/09 02:12:33;;;;;;;18.10;4.53;;;;;;;2.80;82.21;100444.31;5069521;28;20092;-63
2022/04/09 02:15:20;;;;;;;19.33;4.22;;;;;;;2.80;82.30;100451.34;5085252;28;20043;-63
2022/04/09 02:17:46;;;;;;;23.45;4.32;;;;;;;2.94;82.01;100445.56;5077236;28;20076;-63
2022/04/09 02:20:13;;;;;;;29.35;3.97;;;;;;;2.92;81.55;100453.53;5080943;28;20083;-62
2022/04/09 02:22:43;;;;;;;19.20;3.08;;;;;;;2.95;81.64;100457.81;5090363;28;20035;-66
2022/04/09 02:25:11;;;;;;;19.42;3.47;;;;;;;2.95;81.65;100460.44;5095864;28;20089;-61
2022/04/09 02:27:37;;;;;;;16.00;3.65;;;;;;;2.97;81.29;100466.53;5096442;28;20100;-63
2022/04/09 02:30:06;;;;;;;16.95;4.72;;;;;;;2.91;81.01;100469.38;5086405;28;20028;-62
2022/04/09 02:32:42;;;;;;;26.67;3.47;;;;;;;2.91;81.18;100474.66;5087739;28;20074;-62
2022/04/09 02:35:09;;;;;;;18.90;4.10;;;;;;;2.81;82.13;100477.66;5093828;28;20181;-63
2022/04/09 02:37:36;;;;;;;20.13;3.05;;;;;;;2.80;82.04;100489.06;5082503;28;20403;-63
2022/04/09 02:40:02;;;;;;;20.52;3.55;;;;;;;2.74;82.05;100486.69;5081767;28;20051;-63
2022/04/09 02:42:27;;;;;;;19.15;3.40;;;;;;;2.73;82.17;100497.28;5065546;28;20484;-62
2022/04/09 02:44:54;;;;;;;21.85;4.18;;;;;;;2.77;82.27;100502.38;5089756;28;20051;-62
2022/04/09 02:47:21;;;;;;;18.90;3.20;;;;;;;2.78;82.05;100504.09;5091551;28;20150;-61
2022/04/09 02:49:47;;;;;;;18.10;3.45;;;;;;;2.76;82.38;100510.31;5081666;28;20032;-63
2022/04/09 02:52:13;;;;;;;14.02;2.75;;;;;;;2.72;82.36;100514.00;5081877;28;20486;-62
2022/04/09 02:54:38;;;;;;;17.38;3.47;;;;;;;2.62;82.86;100518.72;5088463;28;20035;-62
2022/04/09 02:57:04;;;;;;;11.45;2.60;;;;;;;2.65;82.91;100523.84;5094627;28;20048;-62
2022/04/09 02:59:34;;;;;;;20.98;3.10;;;;;;;2.63;83.17;100523.06;5081514;28;20068;-63
2022/04/09 03:02:00;;;;;;;24.83;3.95;;;;;;;2.68;83.59;100530.81;5083010;28;20500;-62
2022/04/09 03:04:27;;;;;;;23.33;4.40;;;;;;;2.72;83.16;100533.28;5086635;28;20039;-62
2022/04/09 03:06:52;;;;;;;20.23;2.92;;;;;;;2.84;82.09;100535.44;5097794;28;20062;-65
2022/04/09 03:09:18;;;;;;;18.63;3.25;;;;;;;2.80;82.72;100538.25;5084073;28;20032;-62
2022/04/09 03:11:43;;;;;;;20.27;3.67;;;;;;;2.90;82.13;100546.66;5099751;28;20047;-63
2022/04/09 03:14:09;;;;;;;12.75;3.08;;;;;;;2.85;82.28;100552.09;5086669;28;20032;-62
2022/04/09 03:16:34;;;;;;;15.77;2.85;;;;;;;2.89;81.59;100550.22;5098770;28;20104;-63
2022/04/09 03:19:00;;;;;;;12.07;2.88;;;;;;;2.90;81.41;100552.78;5071140;28;20040;-63
2022/04/09 03:21:26;;;;;;;14.68;2.60;;;;;;;2.88;82.05;100553.78;5093228;28;20475;-63
2022/04/09 03:23:52;;;;;;;18.02;3.40;;;;;;;2.80;81.79;100560.16;5102983;28;20031;-62
2022/04/09 03:26:19;;;;;;;16.25;3.95;;;;;;;2.71;82.44;100564.91;5085837;28;20040;-62
2022/04/09 03:28:51;;;;;;;12.65;3.47;;;;;;;2.83;82.04;100562.69;5102661;28;20591;-62
2022/04/09 03:31:16;;;;;;;14.35;3.03;;;;;;;2.82;82.30;100571.50;5093416;28;20032;-63
2022/04/09 03:33:42;;;;;;;12.07;2.58;;;;;;;2.82;82.14;100565.41;5083982;28;20128;-63
2022/04/09 03:36:13;;;;;;;17.30;2.70;;;;;;;2.92;81.76;100574.69;5100797;28;20034;-63
2022/04/09 03:38:43;;;;;;;16.73;2.58;;;;;;;2.95;82.03;100584.22;5089116;28;20043;-63
2022/04/09 03:41:09;;;;;;;13.48;2.45;;;;;;;2.91;81.45;100575.56;5105353;28;20498;-62
2022/04/09 03:43:50;;;;;;;18.70;2.47;;;;;;;2.94;81.44;100587.78;5103560;28;20050;-63
2022/04/09 03:46:16;;;;;;;10.05;2.00;;;;;;;2.91;81.48;100585.25;5086122;28;20101;-63
2022/04/09 03:48:43;;;;;;;11.77;2.55;;;;;;;2.87;82.30;100578.41;5102364;28;20035;-62
2022/04/09 03:51:10;;;;;;;7.60;1.70;;;;;;;2.93;82.18;100589.56;5081448;28;20036;-63
2022/04/09 03:53:35;;;;;;;15.43;2.15;;;;;;;2.94;82.33;100593.06;5067136;28;20040;-63
2022/04/09 03:56:03;;;;;;;13.85;2.33;;;;;;;2.96;82.74;100600.00;5057025;28;20576;-62
2022/04/09 03:58:32;;;;;;;7.10;2.00;;;;;;;2.98;83.08;100611.31;5073184;28;20047;-62
2022/04/09 04:00:58;;;;;;;11.63;2.58;;;;;;;3.02;82.85;100615.56;5066272;28;20028;-63
2022/04/09 04:03:26;;;;;;;17.67;2.83;;;;;;;3.03;83.31;100621.69;5065794;28;20072;-63
2022/04/09 04:05:53;;;;;;;15.23;2.38;;;;;;;3.17;82.48;100643.13;5062078;28;20529;-63
2022/04/09 04:08:18;;;;;;;13.55;2.45;;;;;;;3.24;83.41;100644.63;5069695;28;20029;-63
2022/04/09 04:10:44;;;;;;;16.40;2.70;;;;;;;3.21;84.14;100626.28;5062915;28;20525;-62
2022/04/09 04:13:32;;;;;;;14.90;2.83;;;;;;;3.30;84.01;100625.09;5070934;28;20089;-62
2022/04/09 04:16:01;;;;;;;14.93;2.63;;;;;;;3.28;84.58;100624.31;5078950;28;20036;-62
2022/04/09 04:18:27;;;;;;;20.33;2.88;;;;;;;3.25;83.82;100622.63;5062125;28;20132;-63
2022/04/09 04:20:55;;;;;;;20.13;3.67;;;;;;;3.15;84.31;100636.19;5046687;28;20043;-63
2022/04/09 04:23:23;;;;;;;20.95;4.25;;;;;;;2.99;85.16;100634.09;5088285;28;20036;-63
2022/04/09 04:25:49;;;;;;;19.30;2.70;;;;;;;2.95;84.95;100639.53;5077343;28;20089;-63
2022/04/09 04:28:15;;;;;;;14.35;3.15;;;;;;;2.85;85.47;100646.91;5098868;28;20428;-62
2022/04/09 04:30:41;;;;;;;14.77;2.72;;;;;;;2.89;85.86;100645.03;5101016;28;20104;-63
2022/04/09 04:33:07;;;;;;;12.40;3.55;;;;;;;2.95;85.39;100650.06;5090475;28;20048;-63
2022/04/09 04:35:40;;;;;;;14.80;2.58;;;;;;;3.12;83.82;100647.72;5094337;28;20046;-63
2022/04/09 04:38:05;;;;;;;22.08;3.65;;;;;;;3.18;84.44;100663.28;5082705;28;20032;-63
2022/04/09 04:40:34;;;;;;;14.80;3.03;;;;;;;3.25;83.87;100666.56;5079600;28;20123;-63
2022/04/09 04:43:04;;;;;;;29.02;3.53;;;;;;;3.16;84.68;100664.25;5088191;28;20039;-62
2022/04/09 04:45:30;;;;;;;14.88;2.88;;;;;;;3.14;84.51;100672.22;5087602;28;20028;-63
2022/04/09 04:47:56;;;;;;;20.60;2.60;;;;;;;3.15;84.28;100673.94;5079702;28;20153;-63
2022/04/09 04:50:26;;;;;;;17.33;3.53;;;;;;;3.17;85.24;100685.28;5099695;28;20046;-63
2022/04/09 04:52:52;;;;;;;12.05;2.72;;;;;;;3.26;84.23;100687.59;5100681;28;20062;-63
2022/04/09 04:55:19;;;;;;;13.68;3.03;;;;;;;3.21;85.07;100678.13;5099534;28;20741;-63
2022/04/09 04:57:52;;;;;;;23.55;3.90;;;;;;;3.08;85.24;100683.84;5084276;28;20497;-63
2022/04/09 05:00:44;;;;;;;20.23;3.35;;;;;;;2.99;85.22;100684.16;5079950;28;20066;-63
2022/04/09 05:03:15;;;;;;;18.23;3.08;;;;;;;2.90;86.12;100696.75;5090096;28;20173;-63
2022/04/09 05:06:06;;;;;;;20.53;3.33;;;;;;;2.89;85.88;100697.69;5093209;28;20044;-62
2022/04/09 05:08:33;;;;;;;15.05;2.83;;;;;;;2.89;85.49;100693.28;5100213;28;20122;-62
2022/04/09 05:10:59;;;;;;;18.08;3.13;;;;;;;2.93;85.37;100702.81;5100610;28;20039;-62
2022/04/09 05:13:29;;;;;;;23.73;3.22;;;;;;;2.98;84.90;100700.00;5087607;28;20052;-62
2022/04/09 05:15:55;;;;;;;12.82;2.88;;;;;;;3.01;84.50;100705.16;5079814;28;20464;-63
2022/04/09 05:18:21;;;;;;;16.05;2.72;;;;;;;3.02;84.48;100705.13;5096221;28;20101;-63
2022/04/09 05:20:49;;;;;;;9.73;2.17;;;;;;;3.02;84.12;100714.81;5056677;28;20036;-62
2022/04/09 05:23:16;;;;;;;15.35;3.58;;;;;;;3.00;84.53;100713.97;5079715;28;20147;-63
2022/04/09 05:25:43;;;;;;;21.58;3.03;;;;;;;3.05;84.38;100727.84;5099822;28;20036;-63
2022/04/09 05:28:08;;;;;;;16.50;3.60;;;;;;;3.20;83.50;100729.94;5098722;28;20044;-63
2022/04/09 05:30:44;;;;;;;13.73;2.78;;;;;;;3.30;82.33;100733.13;5084829;28;20051;-63
2022/04/09 05:33:10;;;;;;;23.73;2.90;;;;;;;3.41;82.06;100738.88;5099678;28;20740;-63
2022/04/09 05:35:37;;;;;;;14.23;2.15;;;;;;;3.50;81.76;100743.81;5086062;28;20036;-63
2022/04/09 05:38:03;;;;;;;10.57;2.47;;;;;;;3.54;81.84;100750.72;5093624;28;20047;-63
2022/04/09 05:40:31;;;;;;;12.82;2.97;;;;;;;3.68;81.09;100750.22;5095404;28;20089;-63
2022/04/09 05:43:03;;;;;;;22.85;2.85;;;;;;;4.14;79.80;100761.69;5088102;28;20050;-63
2022/04/09 05:45:28;;;;;;;9.98;2.58;;;;;;;4.20;78.92;100765.88;5090834;28;20036;-63
2022/04/09 05:47:54;;;;;;;11.30;2.55;;;;;;;4.04;79.44;100766.47;5083405;28;20100;-63
2022/04/09 05:50:25;;;;;;;12.85;2.45;;;;;;;4.03;79.33;100772.66;5075776;28;20696;-63
2022/04/09 05:52:50;;;;;;;12.30;2.60;;;;;;;4.02;79.46;100772.72;5078183;28;20051;-63
2022/04/09 05:55:18;;;;;;;15.75;2.58;;;;;;;4.05;79.42;100777.88;5079808;28;20059;-62
2022/04/09 05:57:43;;;;;;;17.48;2.63;;;;;;;4.01;79.07;100786.81;5068155;28;20403;-63
2022/04/09 06:00:11;;;;;;;11.30;2.30;;;;;;;4.00;80.08;100785.09;5070863;28;20059;-63
2022/04/09 06:02:53;;;;;;;13.98;2.28;;;;;;;3.94;79.23;100780.06;5071049;28;20036;-62
2022/04/09 06:05:27;;;;;;;13.27;2.00;;;;;;;4.15;78.13;100792.44;5069886;28;20043;-63
2022/04/09 06:07:54;;;;;;;10.20;2.40;;;;;;;4.38;77.80;100795.06;5077767;28;20055;-63
2022/04/09 06:10:20;;;;;;;9.52;1.88;;;;;;;4.33;77.84;100796.16;5077118;28;20397;-64
2022/04/09 06:12:46;;;;;;;12.95;2.33;;;;;;;4.42;77.99;100809.00;5103606;28;20119;-63
2022/04/09 06:15:16;;;;;;;15.13;3.67;;;;;;;4.30;77.99;100817.38;5092402;28;20617;-64
2022/04/09 06:17:48;;;;;;;17.20;2.78;;;;;;;4.28;78.71;100820.09;5099343;28;20109;-63
2022/04/09 06:20:13;;;;;;;13.65;3.08;;;;;;;4.26;78.39;100816.63;5086651;28;20040;-63
2022/04/09 06:22:42;;;;;;;13.32;2.95;;;;;;;4.20;78.44;100816.88;5073407;28;20028;-64
2022/04/09 06:25:08;;;;;;;20.05;2.63;;;;;;;4.54;78.20;100826.16;5082120;28;20039;-63
2022/04/09 06:27:39;;;;;;;14.90;2.90;;;;;;;5.04;76.08;100825.94;5067580;28;20040;-64
2022/04/09 06:30:06;;;;;;;15.63;3.05;;;;;;;5.37;74.88;100826.28;5062924;28;20086;-63
2022/04/09 06:32:33;;;;;;;9.18;2.35;;;;;;;6.19;72.80;100833.31;5102474;28;20028;-64
2022/04/09 06:34:58;;;;;;;10.85;3.15;;;;;;;6.47;71.88;100838.19;5102110;28;20036;-64
2022/04/09 06:37:25;;;;;;;14.98;3.25;;;;;;;5.96;72.94;100847.56;5101971;28;20380;-64
2022/04/09 06:39:51;;;;;;;15.73;2.50;;;;;;;6.01;72.45;100843.84;5079264;28;20032;-63
2022/04/09 06:42:17;;;;;;;15.10;2.92;;;;;;;5.95;73.09;100850.28;5097825;28;20100;-66
2022/04/09 06:45:03;;;;;;;13.27;2.10;;;;;;;5.61;74.21;100843.78;5091477;28;20155;-63
2022/04/09 06:47:47;;;;;;;;;;;;;;;6.22;72.02;100846.41;5071271;28;20128;-63
2022/04/09 06:50:13;;;;;;;15.82;2.78;;;;;;;6.60;71.18;100842.94;5096968;28;19972;-64
2022/04/09 06:52:40;;;;;;;22.05;2.97;;;;;;;7.17;70.09;100835.75;5100624;28;20131;-63
2022/04/09 06:55:18;;;;;;;12.48;2.00;;;;;;;7.08;68.70;100846.78;5089624;28;20081;-64
2022/04/09 06:57:47;;;;;;;15.25;2.70;;;;;;;7.40;67.61;100850.53;5094143;28;20036;-64
2022/04/09 07:00:16;;;;;;;10.60;1.80;;;;;;;8.18;65.98;100859.75;5083152;28;20126;-64
2022/04/09 07:02:42;;;;;;;7.70;1.63;;;;;;;7.20;67.93;100857.66;5099778;28;20038;-65
2022/04/09 07:05:08;;;;;;;9.20;2.10;;;;;;;7.41;66.83;100862.84;5102250;28;20050;-63
2022/04/09 07:07:34;;;;;;;4.47;1.42;;;;;;;7.30;66.32;100870.50;5090095;28;20044;-67
2022/04/09 07:10:09;;;;;;;6.40;2.38;;;;;;;7.60;66.02;100866.31;5098939;28;20040;-64
2022/04/09 07:12:34;;;;;;;10.77;2.58;;;;;;;7.52;66.77;100877.28;5071277;28;20051;-64
2022/04/09 07:15:01;;;;;;;8.80;1.55;;;;;;;7.68;65.54;100885.34;5102272;28;20054;-64
2022/04/09 07:17:26;;;;;;;11.90;2.88;;;;;;;7.97;65.96;100889.16;5091591;28;20040;-63
2022/04/09 07:19:56;;;;;;;7.68;1.90;;;;;;;7.88;65.63;100884.34;5082836;28;20089;-63
2022/04/09 07:22:22;;;;;;;9.60;3.00;;;;;;;8.11;66.36;100879.63;5075799;28;20480;-64
2022/04/09 07:24:47;;;;;;;11.52;2.22;;;;;;;8.56;64.81;100879.84;5070927;28;20155;-65
2022/04/09 07:27:13;;;;;;;12.90;2.35;;;;;;;8.31;63.63;100887.38;5063581;28;20044;-64
2022/04/09 07:29:38;;;;;;;9.55;2.28;;;;;;;8.17;64.86;100892.56;5076966;28;20036;-64
2022/04/09 07:32:04;;;;;;;13.25;2.75;;;;;;;8.23;64.36;100902.88;5069457;28;20503;-64
2022/04/09 07:34:29;;;;;;;13.75;2.90;;;;;;;8.40;64.18;100899.38;5062133;28;20185;-63
2022/04/09 07:36:55;;;;;;;16.75;3.20;;;;;;;8.62;64.25;100907.03;5065265;28;20044;-64
2022/04/09 07:39:20;;;;;;;12.55;3.08;;;;;;;7.85;65.68;100907.53;5071988;28;20037;-63
2022/04/09 07:41:46;;;;;;;16.50;2.75;;;;;;;8.28;65.23;100916.75;5068977;28;20036;-67
2022/04/09 07:44:11;;;;;;;13.00;2.17;;;;;;;8.39;64.33;100909.13;5073428;28;20044;-63
2022/04/09 07:46:36;;;;;;;15.23;3.38;;;;;;;8.84;63.88;100917.38;5064934;28;20044;-64
2022/04/09 07:49:02;;;;;;;17.05;3.35;;;;;;;9.32;62.86;100911.09;5075499;28;20041;-64
2022/04/09 07:51:27;;;;;;;10.52;2.70;;;;;;;10.31;60.48;100909.72;5070882;28;20044;-64
2022/04/09 07:53:53;;;;;;;11.68;2.20;;;;;;;9.84;60.21;100916.06;5077167;28;20498;-66
2022/04/09 07:56:18;;;;;;;11.75;2.53;;;;;;;9.36;60.34;100928.59;5096018;28;20047;-65
2022/04/09 07:58:43;;;;;;;17.08;2.53;;;;;;;9.23;61.63;100927.56;5086611;28;20043;-64
2022/04/09 08:01:09;;;;;;;11.60;2.55;;;;;;;9.82;61.04;100933.94;5089419;28;20047;-63
2022/04/09 08:03:34;;;;;;;8.35;1.95;;;;;;;9.31;59.96;100936.84;5086926;28;20028;-63
2022/04/09 08:06:00;;;;;;;5.75;1.30;;;;;;;8.61;60.29;100937.22;5089935;28;20488;-64
2022/04/09 08:08:25;;;;;;;6.97;1.42;;;;;;;8.34;61.29;100947.50;5080506;28;20055;-64
2022/04/09 08:10:51;;;;;;;3.00;1.20;;;;;;;7.76;60.43;100956.63;5072026;28;20041;-63
2022/04/09 08:13:17;;;;;;;7.85;1.20;;;;;;;8.55;61.02;100960.53;5069237;28;20499;-63
2022/04/09 08:15:42;;;;;;;6.35;1.50;;;;;;;8.34;60.86;100963.44;5066566;28;20075;-63
2022/04/09 08:18:09;;;;;;;8.48;2.03;;;;;;;8.62;61.23;100966.38;5073836;28;20040;-65
2022/04/09 08:20:36;;;;;;;5.10;1.33;;;;;;;9.27;59.48;100975.22;5074018;28;20565;-63
2022/04/09 08:23:01;;;;;;;5.30;1.50;;;;;;;9.90;59.17;100955.66;5063108;28;20037;-65
2022/04/09 08:25:27;;;;;;;10.55;1.75;;;;;;;8.92;61.37;100974.50;5067299;28;20730;-65
2022/04/09 08:27:53;;;;;;;4.00;1.25;;;;;;;8.42;62.76;100974.53;5062088;28;20040;-63
2022/04/09 08:30:21;;;;;;;7.43;1.55;;;;;;;8.07;64.40;100979.81;5073839;28;20048;-63
2022/04/09 08:32:46;;;;;;;9.35;1.90;;;;;;;7.88;65.57;100984.34;5087671;28;20126;-63
2022/04/09 08:35:12;;;;;;;8.48;2.15;;;;;;;7.20;66.91;100982.31;5091573;28;20050;-64
2022/04/09 08:37:39;;;;;;;6.88;1.70;;;;;;;7.36;67.99;100979.78;5086368;28;20051;-63
2022/04/09 08:40:06;;;;;;;5.50;1.38;;;;;;;7.42;65.98;100990.09;5087673;28;20139;-63
2022/04/09 08:42:32;;;;;;;6.70;1.15;;;;;;;8.07;66.43;100989.59;5089222;28;20044;-64
2022/04/09 08:45:01;;;;;;;6.55;1.08;;;;;;;8.10;65.53;100985.00;5082608;28;20051;-64
2022/04/09 08:47:28;;;;;;;5.55;1.48;;;;;;;8.28;64.42;100992.03;5089961;28;20043;-63
2022/04/09 08:49:55;;;;;;;8.48;1.85;;;;;;;8.53;62.74;100989.00;5095779;28;20047;-63
2022/04/09 08:52:21;;;;;;;10.52;2.33;;;;;;;9.31;62.52;100986.56;5091361;28;20118;-64
2022/04/09 08:54:47;;;;;;;4.88;1.33;;;;;;;9.52;59.75;100972.03;5087096;28;20454;-63
2022/04/09 08:57:14;;;;;;;7.32;1.15;;;;;;;8.91;61.22;100978.09;5097016;28;20043;-64
2022/04/09 08:59:39;;;;;;;11.77;1.67;;;;;;;9.26;61.35;100970.84;5066082;28;20847;-65
2022/04/09 09:02:05;;;;;;;9.40;1.90;;;;;;;8.79;63.23;101011.53;5079194;28;20036;-63
2022/04/09 09:04:30;;;;;;;4.57;0.75;;;;;;;7.21;62.08;101009.69;5086996;28;20458;-63
2022/04/09 09:07:16;;;;;;;6.38;0.90;;;;;;;6.79;68.80;101025.78;5088388;28;20606;-63
2022/04/09 09:09:41;;;;;;;5.60;1.13;;;;;;;6.62;69.31;101035.31;5079663;28;20047;-65
2022/04/09 09:12:07;;;;;;;4.22;1.10;;;;;;;6.31;73.80;101027.00;5097539;28;20043;-63
2022/04/09 09:14:34;;;;;;;7.88;1.20;;;;;;;6.59;72.44;101024.03;5084219;28;20113;-63
2022/04/09 09:17:00;;;;;;;8.50;2.10;;;;;;;6.82;71.36;101021.19;5076151;28;20055;-63
2022/04/09 09:19:47;;;;;;;7.05;1.70;;;;;;;7.34;70.52;101021.47;5080182;28;20827;-63
2022/04/09 09:22:13;;;;;;;7.25;1.10;;;;;;;7.49;68.26;101022.53;5070345;28;20481;-66
2022/04/09 09:24:39;;;;;;;3.58;1.17;;;;;;;8.39;66.97;101019.88;5079001;28;20094;-63
2022/04/09 09:27:05;;;;;;;4.72;1.25;;;;;;;8.86;65.60;101021.84;5077252;28;20052;-63
2022/04/09 09:29:33;;;;;;;10.80;1.58;;;;;;;8.97;64.55;101022.13;5076615;28;20113;-63
2022/04/09 09:32:00;;;;;;;8.93;1.38;;;;;;;9.17;64.65;101021.91;5072197;28;20044;-64
2022/04/09 09:34:27;;;;;;;8.43;1.42;;;;;;;9.59;61.51;101013.34;5076032;28;20487;-64
2022/04/09 09:36:52;;;;;;;11.38;2.30;;;;;;;9.54;61.84;101007.41;5082192;28;20126;-64
2022/04/09 09:39:23;;;;;;;5.85;2.13;;;;;;;9.45;61.33;101015.06;5092979;28;20054;-64
2022/04/09 09:41:52;;;;;;;20.73;3.05;;;;;;;9.15;61.27;101005.16;5096576;28;20035;-63
2022/04/09 09:44:19;;;;;;;6.25;2.08;;;;;;;9.57;60.46;101011.69;5091132;28;20063;-64
2022/04/09 09:46:49;;;;;;;7.47;2.42;;;;;;;9.56;62.30;101010.00;5087750;28;20044;-64
2022/04/09 09:49:18;;;;;;;9.43;2.50;;;;;;;10.19;59.64;100999.22;5088962;28;20036;-63
2022/04/09 09:51:44;;;;;;;9.25;2.17;;;;;;;10.13;59.86;100991.56;5077022;28;20048;-64
2022/04/09 09:54:12;;;;;;;10.50;2.42;;;;;;;10.31;59.43;100995.84;5066703;28;20488;-64
2022/04/09 09:56:44;;;;;;;5.07;2.03;;;;;;;10.32;59.59;100997.56;5089838;28;20051;-63
2022/04/09 09:59:10;;;;;;;;;;;;;;;9.47;58.00;101002.50;5094408;28;20032;-63
2022/04/09 10:01:44;;;;;;;10.40;2.00;;;;;;;8.66;60.53;101022.91;5083970;28;19916;-64
2022/04/09 10:04:11;;;;;;;6.07;1.77;;;;;;;8.36;62.91;101025.31;5091600;28;20048;-68
2022/04/09 10:06:38;;;;;;;9.45;1.85;;;;;;;7.91;62.34;101032.84;5093052;28;20067;-63
2022/04/09 10:09:05;;;;;;;6.90;1.50;;;;;;;8.10;63.54;101038.13;5100255;28;20040;-63
2022/04/09 10:11:35;;;;;;;11.13;1.50;;;;;;;8.62;63.69;101053.22;5084149;28;20514;-63
2022/04/09 10:14:02;;;;;;;8.35;1.58;;;;;;;7.65;65.58;101060.66;5084990;28;20043;-63
2022/04/09 10:16:30;;;;;;;5.75;1.80;;;;;;;6.55;72.58;101105.41;5071766;28;20046;-62
2022/04/09 10:19:00;;;;;;;6.03;1.40;;;;;;;5.39;77.21;101124.13;5104893;28;20488;-63
2022/04/09 10:21:28;;;;;;;2.75;1.33;;;;;;;4.92;80.09;101129.38;5098090;28;20028;-63
2022/04/09 10:23:56;;;;;;;6.90;2.78;;;;;;;4.84;81.73;101130.53;5094952;28;20089;-62
2022/04/09 10:26:22;;;;;;;7.53;1.90;;;;;;;5.00;80.40;101101.78;5070917;28;20089;-62
2022/04/09 10:28:50;;;;;;;4.30;1.70;;;;;;;5.16;80.45;101114.38;5065863;28;20052;-62
2022/04/09 10:31:28;;;;;;;8.80;2.35;;;;;;;5.33;80.25;101116.44;5087056;28;20396;-63
2022/04/09 10:33:55;;;;;;;10.80;2.58;;;;;;;5.63;78.93;101113.53;5098523;28;20047;-62
2022/04/09 10:36:45;;;;;;;3.22;1.48;;;;;;;5.54;78.71;101120.03;5095995;28;20107;-63
2022/04/09 10:39:22;;;;;;;4.72;0.90;;;;;;;5.89;77.76;101129.25;5101887;28;20186;-63
2022/04/09 10:41:48;;;;;;;3.80;1.05;;;;;;;6.15;77.56;101122.09;5084323;28;20047;-63
2022/04/09 10:44:51;;;;;;;5.05;1.20;;;;;;;6.45;77.77;101119.97;5084009;28;20067;-65
2022/04/09 10:47:18;;;;;;;1.95;0.90;;;;;;;6.09;75.16;101125.00;5078912;28;20048;-63
2022/04/09 10:50:01;;;;;;;3.35;0.98;;;;;;;6.08;74.53;101117.97;5089424;28;20048;-63
2022/04/09 10:52:29;;;;;;;6.07;0.98;;;;;;;6.39;74.32;101121.09;5069493;28;20133;-63
2022/04/09 10:55:09;;;;;;;2.33;0.95;;;;;;;7.38;72.80;101113.25;5096823;28;20032;-64
2022/04/09 10:57:45;;;;;;;9.85;1.52;;;;;;;8.11;72.20;101108.88;5081522;28;20147;-63
2022/04/09 11:00:23;;;;;;;5.00;0.85;;;;;;;7.98;69.26;101105.97;5071828;28;20064;-63
2022/04/09 11:03:26;;;;;;;7.50;1.35;;;;;;;8.17;69.78;101092.63;5087291;28;20071;-63
2022/04/09 11:06:11;;;;;;;5.57;1.60;;;;;;;8.38;69.38;101103.16;5070118;28;20805;-64
2022/04/09 11:08:40;;;;;;;6.05;1.00;;;;;;;8.77;65.13;101095.81;5074627;28;20055;-63
2022/04/09 11:11:05;;;;;;;4.50;0.90;;;;;;;8.41;64.64;101093.25;5079685;28;20046;-65
2022/04/09 11:13:30;;;;;;;6.25;0.98;;;;;;;8.18;64.86;101120.94;5081107;28;20039;-63
2022/04/09 11:15:56;;;;;;;2.45;0.70;;;;;;;7.70;60.51;101116.19;5088016;28;20079;-63
2022/04/09 11:18:22;;;;;;;4.05;1.08;;;;;;;8.36;64.40;101127.16;5088641;28;20039;-64
2022/04/09 11:20:48;;;;;;;0.88;0.75;;;;;;;9.17;61.46;101125.66;5080707;28;20085;-63
2022/04/09 11:23:19;;;;;;;4.45;0.73;;;;;;;9.11;62.24;101135.78;5093624;28;20046;-64
2022/04/09 11:25:46;;;;;;;2.13;1.20;;;;;;;8.84;63.21;101136.28;5088620;28;20036;-66
2022/04/09 11:28:19;;;;;;;4.32;0.90;;;;;;;9.20;61.98;101132.63;5062448;28;20070;-63
2022/04/09 11:30:54;;;;;;;;;;;;;;;9.01;62.04;101149.53;5085856;28;20056;-63
2022/04/09 11:33:19;;;;;;;6.35;1.05;;;;;;;8.44;63.98;101177.28;5059957;28;20513;-63
2022/04/09 11:35:45;;;;;;;5.40;1.30;;;;;;;7.13;67.92;101177.13;5074465;28;20031;-61